createdAt,value
2024-04-17T00:00:45.275Z,67.62
2024-04-17T00:03:07.705Z,67.82
2024-04-17T00:05:12.258Z,67.69
2024-04-17T00:07:15.077Z,67.77
2024-04-17T00:09:17.878Z,67.81
2024-04-17T00:11:22.065Z,67.97
2024-04-17T00:13:24.730Z,68.08
2024-04-17T00:15:27.341Z,68.19
2024-04-17T00:17:29.813Z,68.07
2024-04-17T00:19:32.221Z,67.94
2024-04-17T00:21:35.299Z,67.48
2024-04-17T00:23:38.938Z,67.37
2024-04-17T00:25:41.502Z,67.20
2024-04-17T00:27:43.925Z,67.18
2024-04-17T00:29:46.366Z,66.96
2024-04-17T00:31:48.841Z,66.63
2024-04-17T00:33:51.404Z,66.87
2024-04-17T00:35:53.829Z,66.67
2024-04-17T00:37:57.374Z,66.58
2024-04-17T00:39:59.763Z,66.70
2024-04-17T00:42:02.477Z,66.82
2024-04-17T00:44:05.557Z,66.53
2024-04-17T00:46:14.003Z,66.39
2024-04-17T00:48:17.947Z,66.52
2024-04-17T00:50:20.566Z,66.49
2024-04-17T00:52:24.073Z,66.64
2024-04-17T00:54:26.610Z,66.52
2024-04-17T00:56:29.416Z,66.40
2024-04-17T00:58:32.217Z,66.53
2024-04-17T01:00:37.208Z,66.69
2024-04-17T01:02:40.045Z,66.51
2024-04-17T01:04:42.575Z,66.53
2024-04-17T01:06:45.074Z,66.57
2024-04-17T01:08:47.899Z,66.78
2024-04-17T01:11:02.484Z,66.81
2024-04-17T01:13:05.186Z,66.73
2024-04-17T01:15:12.302Z,66.70
2024-04-17T01:17:15.023Z,66.66
2024-04-17T01:19:18.025Z,66.84
2024-04-17T01:21:20.418Z,66.70
2024-04-17T01:23:22.989Z,66.92
2024-04-17T01:25:25.556Z,66.77
2024-04-17T01:27:27.992Z,66.76
2024-04-17T01:29:30.441Z,66.72
2024-04-17T01:31:32.864Z,66.69
2024-04-17T01:33:36.425Z,66.60
2024-04-17T01:35:38.881Z,66.81
2024-04-17T01:37:41.392Z,66.72
2024-04-17T01:39:44.456Z,66.85
2024-04-17T01:41:46.843Z,66.97
2024-04-17T01:43:49.604Z,66.84
2024-04-17T01:45:52.553Z,66.60
2024-04-17T01:47:55.285Z,66.59
2024-04-17T01:49:58.247Z,66.36
2024-04-17T01:52:00.606Z,66.38
2024-04-17T01:54:03.061Z,66.32
2024-04-17T01:56:06.003Z,66.27
2024-04-17T01:58:08.553Z,66.25
2024-04-17T02:00:11.662Z,66.29
2024-04-17T02:02:14.049Z,66.26
2024-04-17T02:04:16.532Z,66.23
2024-04-17T02:06:19.373Z,66.39
2024-04-17T02:08:21.814Z,66.58
2024-04-17T02:10:24.371Z,66.60
2024-04-17T02:12:26.814Z,66.65
2024-04-17T02:14:29.192Z,66.84
2024-04-17T02:16:32.474Z,66.78
2024-04-17T02:18:35.203Z,66.89
2024-04-17T02:20:37.767Z,66.94
2024-04-17T02:22:40.249Z,66.72
2024-04-17T02:24:42.754Z,66.81
2024-04-17T02:26:45.111Z,66.80
2024-04-17T02:28:47.741Z,66.87
2024-04-17T02:30:50.802Z,67.05
2024-04-17T02:32:53.390Z,67.06
2024-04-17T02:34:55.996Z,67.25
2024-04-17T02:36:58.603Z,67.34
2024-04-17T02:39:01.078Z,67.44
2024-04-17T02:41:03.610Z,67.55
2024-04-17T02:43:06.434Z,67.29
2024-04-17T02:45:09.103Z,67.42
2024-04-17T02:47:12.092Z,67.50
2024-04-17T02:49:14.596Z,67.62
2024-04-17T02:51:17.006Z,67.47
2024-04-17T02:53:19.384Z,67.23
2024-04-17T02:55:21.818Z,67.35
2024-04-17T02:57:24.315Z,67.36
2024-04-17T02:59:26.815Z,67.39
2024-04-17T03:01:29.374Z,67.34
2024-04-17T03:03:31.924Z,67.29
2024-04-17T03:05:35.179Z,67.16
2024-04-17T03:07:37.659Z,67.31
2024-04-17T03:09:40.464Z,67.16
2024-04-17T03:11:42.863Z,67.13
2024-04-17T03:13:46.283Z,67.19
2024-04-17T03:15:48.651Z,67.14
2024-04-17T03:17:51.282Z,67.12
2024-04-17T03:19:53.961Z,67.27
2024-04-17T03:21:56.316Z,67.39
2024-04-17T03:23:58.704Z,67.35
2024-04-17T03:26:02.151Z,67.51
2024-04-17T03:28:05.338Z,67.62
2024-04-17T03:30:08.576Z,67.56
2024-04-17T03:32:11.001Z,67.34
2024-04-17T03:34:13.480Z,67.38
2024-04-17T03:36:20.722Z,67.28
2024-04-17T03:38:25.567Z,67.42
2024-04-17T03:40:28.265Z,67.33
2024-04-17T03:42:31.996Z,67.21
2024-04-17T03:44:34.456Z,67.22
2024-04-17T03:46:37.012Z,67.25
2024-04-17T03:48:39.425Z,67.29
2024-04-17T03:50:41.917Z,67.29
2024-04-17T03:52:44.437Z,67.34
2024-04-17T03:54:46.877Z,67.58
2024-04-17T03:56:49.242Z,67.56
2024-04-17T03:58:51.706Z,67.64
2024-04-17T04:00:54.329Z,67.54
2024-04-17T04:02:57.060Z,67.41
2024-04-17T04:04:59.663Z,67.49
2024-04-17T04:07:02.107Z,67.50
2024-04-17T04:09:04.533Z,67.47
2024-04-17T04:11:07.199Z,67.29
2024-04-17T04:13:09.743Z,67.14
2024-04-17T04:15:12.314Z,67.07
2024-04-17T04:17:14.806Z,67.07
2024-04-17T04:19:17.336Z,67.08
2024-04-17T04:21:19.781Z,66.94
2024-04-17T04:23:22.227Z,67.00
2024-04-17T04:25:24.753Z,67.09
2024-04-17T04:27:27.306Z,66.99
2024-04-17T04:29:29.730Z,66.95
2024-04-17T04:31:32.430Z,66.83
2024-04-17T04:33:34.966Z,67.05
2024-04-17T04:35:37.802Z,67.08
2024-04-17T04:37:43.127Z,66.95
2024-04-17T04:39:46.876Z,66.98
2024-04-17T04:41:49.406Z,67.09
2024-04-17T04:43:51.778Z,67.20
2024-04-17T04:45:54.327Z,67.24
2024-04-17T04:47:56.807Z,67.36
2024-04-17T04:49:59.305Z,67.33
2024-04-17T04:52:01.941Z,67.18
2024-04-17T04:54:04.387Z,67.21
2024-04-17T04:56:07.023Z,67.31
2024-04-17T04:58:09.474Z,67.54
2024-04-17T05:00:12.310Z,67.65
2024-04-17T05:02:15.012Z,67.64
2024-04-17T05:04:17.596Z,67.61
2024-04-17T05:06:19.995Z,67.55
2024-04-17T05:08:22.420Z,67.62
2024-04-17T05:10:24.846Z,67.68
2024-04-17T05:12:27.591Z,67.82
2024-04-17T05:14:30.008Z,68.02
2024-04-17T05:16:32.529Z,68.12
2024-04-17T05:18:35.883Z,67.44
2024-04-17T05:20:38.799Z,67.39
2024-04-17T05:22:41.436Z,66.99
2024-04-17T05:24:43.875Z,67.13
2024-04-17T05:26:46.603Z,67.45
2024-04-17T05:28:49.036Z,67.37
2024-04-17T05:31:00.691Z,67.29
2024-04-17T05:33:03.621Z,67.01
2024-04-17T05:35:06.587Z,67.07
2024-04-17T05:37:08.997Z,67.07
2024-04-17T05:39:11.448Z,67.14
2024-04-17T05:41:13.957Z,67.14
2024-04-17T05:43:17.179Z,67.13
2024-04-17T05:45:19.588Z,67.05
2024-04-17T05:47:22.153Z,67.55
2024-04-17T05:49:24.715Z,67.39
2024-04-17T05:51:27.060Z,67.65
2024-04-17T05:53:29.503Z,67.30
2024-04-17T05:55:33.191Z,67.34
2024-04-17T05:57:35.672Z,67.46
2024-04-17T05:59:38.047Z,67.53
2024-04-17T06:01:40.457Z,67.32
2024-04-17T06:03:43.141Z,67.47
2024-04-17T06:05:45.606Z,67.52
2024-04-17T06:07:48.068Z,67.21
2024-04-17T06:09:50.500Z,67.43
2024-04-17T06:11:53.679Z,67.36
2024-04-17T06:13:56.724Z,67.23
2024-04-17T06:15:59.168Z,66.90
2024-04-17T06:18:01.664Z,67.16
2024-04-17T06:20:04.569Z,67.36
2024-04-17T06:22:07.008Z,67.13
2024-04-17T06:24:09.804Z,67.18
2024-04-17T06:26:15.475Z,67.16
2024-04-17T06:28:18.926Z,67.15
2024-04-17T06:30:21.432Z,67.02
2024-04-17T06:32:24.020Z,67.05
2024-04-17T06:34:26.574Z,66.99
2024-04-17T06:36:29.059Z,66.71
2024-04-17T06:38:31.657Z,66.58
2024-04-17T06:40:34.094Z,66.36
2024-04-17T06:42:36.628Z,66.23
2024-04-17T06:44:40.028Z,66.33
2024-04-17T06:46:43.133Z,66.10
2024-04-17T06:48:45.646Z,65.93
2024-04-17T06:50:48.172Z,65.91
2024-04-17T06:52:50.730Z,65.87
2024-04-17T06:54:53.242Z,65.81
2024-04-17T06:56:55.681Z,65.65
2024-04-17T06:58:58.077Z,65.71
2024-04-17T07:01:00.697Z,65.52
2024-04-17T07:03:05.282Z,65.35
2024-04-17T07:05:08.958Z,65.05
2024-04-17T07:07:11.492Z,65.09
2024-04-17T07:09:14.137Z,64.58
2024-04-17T07:11:17.341Z,64.54
2024-04-17T07:13:20.127Z,63.96
2024-04-17T07:15:22.794Z,63.74
2024-04-17T07:17:25.833Z,63.68
2024-04-17T07:19:28.348Z,63.27
2024-04-17T07:21:30.863Z,62.86
2024-04-17T07:23:33.356Z,62.80
2024-04-17T07:25:35.773Z,62.73
2024-04-17T07:27:38.157Z,62.42
2024-04-17T07:29:40.576Z,62.25
2024-04-17T07:31:44.705Z,61.93
2024-04-17T07:33:50.001Z,61.60
2024-04-17T07:35:59.850Z,61.33
2024-04-17T07:38:02.812Z,61.38
2024-04-17T07:40:05.874Z,61.16
2024-04-17T07:42:08.306Z,61.12
2024-04-17T07:44:10.839Z,60.91
2024-04-17T07:46:13.344Z,60.74
2024-04-17T07:48:15.823Z,60.69
2024-04-17T07:50:19.666Z,61.00
2024-04-17T07:52:22.083Z,60.93
2024-04-17T07:54:24.508Z,60.70
2024-04-17T07:56:27.083Z,60.16
2024-04-17T07:58:29.509Z,60.30
2024-04-17T08:00:33.124Z,60.30
2024-04-17T08:02:35.677Z,60.35
2024-04-17T08:04:38.176Z,60.10
2024-04-17T08:06:40.522Z,59.92
2024-04-17T08:08:43.100Z,59.56
2024-04-17T08:10:45.557Z,58.84
2024-04-17T08:12:48.736Z,58.54
2024-04-17T08:14:52.140Z,58.91
2024-04-17T08:16:54.669Z,59.02
2024-04-17T08:18:58.133Z,58.60
2024-04-17T08:21:03.649Z,58.30
2024-04-17T08:23:06.306Z,58.09
2024-04-17T08:25:08.861Z,58.20
2024-04-17T08:27:11.369Z,58.13
2024-04-17T08:29:14.196Z,58.35
2024-04-17T08:31:16.781Z,58.39
2024-04-17T08:33:19.266Z,58.30
2024-04-17T08:35:22.670Z,58.69
2024-04-17T08:37:25.327Z,58.88
2024-04-17T08:39:27.901Z,58.94
2024-04-17T08:41:36.003Z,59.05
2024-04-17T08:43:41.712Z,59.06
2024-04-17T08:45:50.057Z,58.89
2024-04-17T08:47:55.164Z,58.44
2024-04-17T08:50:00.905Z,58.22
2024-04-17T08:52:04.091Z,57.97
2024-04-17T08:54:07.590Z,57.51
2024-04-17T08:56:14.336Z,56.94
2024-04-17T08:58:17.496Z,56.83
2024-04-17T09:00:20.658Z,56.46
2024-04-17T09:02:24.675Z,56.07
2024-04-17T09:04:28.563Z,56.30
2024-04-17T09:06:31.920Z,57.00
2024-04-17T09:08:34.758Z,57.13
2024-04-17T09:10:37.312Z,56.89
2024-04-17T09:12:46.091Z,56.66
2024-04-17T09:14:55.402Z,56.21
2024-04-17T09:17:00.403Z,56.08
2024-04-17T09:19:03.334Z,56.00
2024-04-17T09:21:06.640Z,55.30
2024-04-17T09:23:10.238Z,54.96
2024-04-17T09:25:16.870Z,54.86
2024-04-17T09:27:19.599Z,55.05
2024-04-17T09:29:22.341Z,55.22
2024-04-17T09:31:25.055Z,55.00
2024-04-17T09:33:28.905Z,55.04
2024-04-17T09:35:31.623Z,54.71
2024-04-17T09:37:34.517Z,54.59
2024-04-17T09:39:37.508Z,54.71
2024-04-17T09:41:45.562Z,54.64
2024-04-17T09:43:55.790Z,54.58
2024-04-17T09:46:02.272Z,54.28
2024-04-17T09:48:09.735Z,54.21
2024-04-17T09:50:18.461Z,54.25
2024-04-17T09:52:21.419Z,54.08
2024-04-17T09:54:24.568Z,54.21
2024-04-17T09:56:28.240Z,54.34
2024-04-17T09:58:37.375Z,54.55
2024-04-17T10:00:41.111Z,54.46
2024-04-17T10:02:45.309Z,53.90
2024-04-17T10:04:53.949Z,53.92
2024-04-17T10:07:00.941Z,54.20
2024-04-17T10:09:06.229Z,53.86
2024-04-17T10:11:09.963Z,53.68
2024-04-17T10:13:13.096Z,53.12
2024-04-17T10:15:16.764Z,52.81
2024-04-17T10:17:30.099Z,53.34
2024-04-17T10:19:38.200Z,53.64
2024-04-17T10:21:42.917Z,54.02
2024-04-17T10:23:45.281Z,54.25
2024-04-17T10:25:58.280Z,54.98
2024-04-17T10:28:27.679Z,56.10
2024-04-17T10:30:35.439Z,56.74
2024-04-17T10:32:38.105Z,57.11
2024-04-17T10:34:48.335Z,58.00
2024-04-17T10:37:03.973Z,58.49
2024-04-17T10:39:06.881Z,59.15
2024-04-17T10:41:12.640Z,59.41
2024-04-17T10:43:15.644Z,59.41
2024-04-17T10:45:18.183Z,60.07
2024-04-17T10:47:30.609Z,60.06
2024-04-17T10:49:42.008Z,60.54
2024-04-17T10:51:45.155Z,60.45
2024-04-17T10:53:48.848Z,60.19
2024-04-17T10:55:52.047Z,60.28
2024-04-17T10:57:54.887Z,60.38
2024-04-17T10:59:57.380Z,60.35
2024-04-17T11:02:00.144Z,60.72
2024-04-17T11:04:02.887Z,61.02
2024-04-17T11:06:12.048Z,61.05
2024-04-17T11:08:15.416Z,61.25
2024-04-17T11:10:17.830Z,61.32
2024-04-17T11:12:21.011Z,61.05
2024-04-17T11:14:23.466Z,60.41
2024-04-17T11:16:26.002Z,59.81
2024-04-17T11:18:32.789Z,59.45
2024-04-17T11:20:37.636Z,59.28
2024-04-17T11:22:41.650Z,59.13
2024-04-17T11:24:53.943Z,58.93
2024-04-17T11:26:56.295Z,58.52
2024-04-17T11:28:59.009Z,57.59
2024-04-17T11:31:01.657Z,57.17
2024-04-17T11:33:04.803Z,56.42
2024-04-17T11:35:16.011Z,55.80
2024-04-17T11:37:18.796Z,56.30
2024-04-17T11:39:21.674Z,56.98
2024-04-17T11:41:24.039Z,57.48
2024-04-17T11:43:27.242Z,57.53
2024-04-17T11:45:30.388Z,57.47
2024-04-17T11:47:32.952Z,57.78
2024-04-17T11:49:35.596Z,58.15
2024-04-17T11:51:38.125Z,58.34
2024-04-17T11:53:41.342Z,58.54
2024-04-17T11:55:43.819Z,58.81
2024-04-17T11:57:46.368Z,58.67
2024-04-17T11:59:49.160Z,58.69
2024-04-17T12:01:51.695Z,58.81
2024-04-17T12:03:54.230Z,58.52
2024-04-17T12:05:56.706Z,58.72
2024-04-17T12:08:00.026Z,58.68
2024-04-17T12:10:04.184Z,58.44
2024-04-17T12:12:08.222Z,57.77
2024-04-17T12:14:10.695Z,57.33
2024-04-17T12:16:13.127Z,57.52
2024-04-17T12:18:15.652Z,57.85
2024-04-17T12:20:18.354Z,57.37
2024-04-17T12:22:20.790Z,57.64
2024-04-17T12:24:43.212Z,57.29
2024-04-17T12:26:53.296Z,57.49
2024-04-17T12:28:55.910Z,57.65
2024-04-17T12:30:58.766Z,57.62
2024-04-17T12:33:01.286Z,57.33
2024-04-17T12:35:06.146Z,57.39
2024-04-17T12:37:11.078Z,57.44
2024-04-17T12:39:13.746Z,57.23
2024-04-17T12:41:19.122Z,57.15
2024-04-17T12:43:21.771Z,56.52
2024-04-17T12:45:24.220Z,56.98
2024-04-17T12:47:27.570Z,57.02
2024-04-17T12:49:30.056Z,57.23
2024-04-17T12:51:32.633Z,56.12
2024-04-17T12:53:35.142Z,55.91
2024-04-17T12:55:37.884Z,56.43
2024-04-17T12:57:42.165Z,57.09
2024-04-17T12:59:44.563Z,57.22
2024-04-17T13:01:46.914Z,57.30
2024-04-17T13:03:49.450Z,56.87
2024-04-17T13:06:00.623Z,56.87
2024-04-17T13:08:03.326Z,56.61
2024-04-17T13:10:09.627Z,57.11
2024-04-17T13:12:12.983Z,57.61
2024-04-17T13:14:16.908Z,57.64
2024-04-17T13:16:19.306Z,57.45
2024-04-17T13:18:21.879Z,57.83
2024-04-17T13:20:24.504Z,58.11
2024-04-17T13:22:28.378Z,57.98
2024-04-17T13:24:31.250Z,58.29
2024-04-17T13:26:33.863Z,58.44
2024-04-17T13:28:36.831Z,57.40
2024-04-17T13:30:39.226Z,56.65
2024-04-17T13:32:41.723Z,56.38
2024-04-17T13:34:44.154Z,55.60
2024-04-17T13:36:46.632Z,56.23
2024-04-17T13:38:49.409Z,55.91
2024-04-17T13:40:59.318Z,55.01
2024-04-17T13:43:01.753Z,54.42
2024-04-17T13:45:06.316Z,53.79
2024-04-17T13:47:08.895Z,53.16
2024-04-17T13:49:11.372Z,53.02
2024-04-17T13:51:13.821Z,53.04
2024-04-17T13:53:16.267Z,53.21
2024-04-17T13:55:19.067Z,53.75
2024-04-17T13:57:21.471Z,53.34
2024-04-17T13:59:23.997Z,52.95
2024-04-17T14:01:26.464Z,53.06
2024-04-17T14:03:29.097Z,52.84
2024-04-17T14:05:35.883Z,52.90
2024-04-17T14:07:38.414Z,51.97
2024-04-17T14:09:40.936Z,51.13
2024-04-17T14:11:43.435Z,51.55
2024-04-17T14:13:45.906Z,52.00
2024-04-17T14:15:48.427Z,52.28
2024-04-17T14:17:51.387Z,52.15
2024-04-17T14:19:54.170Z,51.93
2024-04-17T14:21:57.604Z,52.21
2024-04-17T14:24:00.429Z,52.09
2024-04-17T14:26:03.620Z,51.71
2024-04-17T14:28:07.247Z,51.41
2024-04-17T14:30:12.648Z,50.93
2024-04-17T14:32:17.983Z,51.55
2024-04-17T14:34:20.837Z,51.36
2024-04-17T14:36:27.948Z,51.19
2024-04-17T14:38:31.016Z,51.15
2024-04-17T14:40:33.511Z,50.92
2024-04-17T14:42:36.679Z,50.80
2024-04-17T14:44:40.133Z,50.77
2024-04-17T14:46:43.127Z,51.08
2024-04-17T14:48:45.536Z,51.60
2024-04-17T14:50:47.915Z,51.68
2024-04-17T14:52:50.306Z,51.98
2024-04-17T14:54:52.790Z,52.16
2024-04-17T14:56:55.147Z,52.26
2024-04-17T14:58:57.546Z,52.17
2024-04-17T15:01:00.824Z,52.37
2024-04-17T15:03:05.554Z,52.42
2024-04-17T15:05:08.914Z,52.50
2024-04-17T15:07:11.488Z,52.30
2024-04-17T15:09:14.167Z,52.45
2024-04-17T15:11:17.363Z,52.82
2024-04-17T15:13:20.206Z,52.98
2024-04-17T15:15:22.691Z,52.68
2024-04-17T15:17:25.492Z,52.63
2024-04-17T15:19:30.151Z,52.73
2024-04-17T15:21:32.950Z,52.81
2024-04-17T15:23:36.786Z,52.66
2024-04-17T15:25:39.207Z,52.32
2024-04-17T15:27:41.750Z,52.68
2024-04-17T15:29:45.480Z,52.45
2024-04-17T15:31:47.904Z,52.18
2024-04-17T15:33:55.330Z,52.28
2024-04-17T15:35:58.874Z,51.74
2024-04-17T15:38:01.673Z,51.12
2024-04-17T15:40:04.674Z,50.72
2024-04-17T15:42:07.189Z,50.37
2024-04-17T15:44:09.778Z,50.65
2024-04-17T15:46:13.880Z,50.86
2024-04-17T15:48:16.405Z,50.76
2024-04-17T15:50:18.951Z,51.33
2024-04-17T15:52:21.308Z,51.77
2024-04-17T15:54:25.264Z,52.70
2024-04-17T15:56:28.530Z,53.80
2024-04-17T15:58:30.939Z,53.87
2024-04-17T16:00:33.298Z,54.04
2024-04-17T16:02:37.833Z,54.62
2024-04-17T16:04:40.338Z,55.20
2024-04-17T16:06:42.798Z,55.79
2024-04-17T16:08:45.766Z,55.81
2024-04-17T16:11:01.124Z,55.84
2024-04-17T16:13:04.054Z,56.33
2024-04-17T16:15:10.637Z,56.47
2024-04-17T16:17:13.486Z,56.68
2024-04-17T16:19:15.963Z,56.98
2024-04-17T16:21:19.152Z,57.32
2024-04-17T16:23:23.061Z,57.46
2024-04-17T16:25:25.459Z,57.96
2024-04-17T16:27:27.841Z,58.02
2024-04-17T16:29:30.260Z,57.78
2024-04-17T16:31:32.816Z,57.28
2024-04-17T16:33:35.418Z,56.97
2024-04-17T16:35:37.901Z,56.97
2024-04-17T16:37:40.305Z,56.75
2024-04-17T16:39:44.719Z,56.50
2024-04-17T16:41:47.213Z,56.92
2024-04-17T16:43:49.821Z,57.15
2024-04-17T16:46:01.595Z,57.14
2024-04-17T16:48:04.218Z,56.94
2024-04-17T16:50:07.108Z,56.59
2024-04-17T16:52:09.444Z,56.44
2024-04-17T16:54:13.763Z,56.13
2024-04-17T16:56:18.105Z,55.99
2024-04-17T16:58:23.816Z,55.64
2024-04-17T17:00:26.512Z,55.28
2024-04-17T17:02:30.125Z,55.09
2024-04-17T17:04:34.267Z,55.13
2024-04-17T17:06:38.215Z,55.11
2024-04-17T17:08:42.138Z,55.17
2024-04-17T17:10:52.036Z,55.20
2024-04-17T17:12:58.295Z,55.10
2024-04-17T17:15:00.876Z,55.49
2024-04-17T17:17:04.965Z,55.42
2024-04-17T17:19:08.919Z,55.85
2024-04-17T17:21:14.994Z,55.95
2024-04-17T17:23:20.981Z,56.31
2024-04-17T17:25:39.479Z,56.39
2024-04-17T17:27:43.233Z,56.59
2024-04-17T17:29:48.909Z,56.18
2024-04-17T17:31:52.431Z,56.24
2024-04-17T17:33:57.068Z,56.36
2024-04-17T17:36:04.430Z,56.35
2024-04-17T17:38:09.196Z,56.55
2024-04-17T17:40:12.907Z,57.07
2024-04-17T17:42:18.357Z,57.09
2024-04-17T17:44:20.749Z,57.32
2024-04-17T17:46:24.760Z,57.49
2024-04-17T17:48:28.859Z,57.51
2024-04-17T17:50:32.570Z,56.99
2024-04-17T17:52:36.147Z,56.92
2024-04-17T17:54:40.397Z,56.88
2024-04-17T17:56:42.935Z,57.05
2024-04-17T17:58:48.231Z,56.88
2024-04-17T18:00:52.923Z,56.75
2024-04-17T18:02:56.744Z,56.58
2024-04-17T18:04:59.137Z,56.54
2024-04-17T18:07:02.968Z,56.51
2024-04-17T18:09:10.047Z,56.86
2024-04-17T18:11:15.458Z,57.03
2024-04-17T18:13:20.395Z,56.80
2024-04-17T18:15:24.570Z,56.64
2024-04-17T18:17:29.322Z,56.39
2024-04-17T18:19:31.764Z,56.66
2024-04-17T18:21:35.693Z,56.77
2024-04-17T18:23:41.433Z,57.09
2024-04-17T18:25:45.121Z,57.76
2024-04-17T18:27:48.923Z,57.72
2024-04-17T18:29:51.220Z,58.55
2024-04-17T18:31:54.938Z,59.05
2024-04-17T18:33:58.972Z,59.40
2024-04-17T18:36:04.392Z,59.40
2024-04-17T18:38:08.208Z,59.80
2024-04-17T18:40:14.460Z,60.14
2024-04-17T18:42:18.234Z,60.29
2024-04-17T18:44:23.456Z,60.18
2024-04-17T18:46:33.480Z,60.37
2024-04-17T18:48:38.251Z,60.30
2024-04-17T18:50:42.695Z,60.56
2024-04-17T18:52:46.513Z,60.67
2024-04-17T18:54:51.030Z,60.68
2024-04-17T18:56:55.116Z,60.83
2024-04-17T18:58:59.631Z,60.90
2024-04-17T19:01:08.844Z,60.73
2024-04-17T19:03:12.994Z,60.03
2024-04-17T19:05:17.021Z,59.71
2024-04-17T19:07:22.448Z,59.80
2024-04-17T19:09:25.809Z,60.14
2024-04-17T19:11:30.090Z,60.33
2024-04-17T19:13:34.377Z,60.69
2024-04-17T19:15:42.021Z,60.62
2024-04-17T19:17:44.476Z,60.44
2024-04-17T19:19:48.761Z,60.55
2024-04-17T19:21:55.226Z,60.70
2024-04-17T19:23:59.759Z,61.30
2024-04-17T19:26:05.176Z,61.52
2024-04-17T19:28:09.492Z,61.71
2024-04-17T19:30:14.477Z,61.88
2024-04-17T19:32:18.940Z,61.81
2024-04-17T19:34:23.576Z,61.71
2024-04-17T19:36:28.872Z,61.84
2024-04-17T19:38:38.112Z,62.10
2024-04-17T19:40:45.837Z,61.82
2024-04-17T19:42:56.610Z,61.28
2024-04-17T19:45:03.848Z,61.52
2024-04-17T19:47:08.463Z,61.37
2024-04-17T19:49:14.783Z,61.55
2024-04-17T19:51:18.767Z,61.94
2024-04-17T19:53:23.883Z,62.08
2024-04-17T19:55:29.592Z,62.26
2024-04-17T19:57:52.309Z,62.53
2024-04-17T19:59:55.499Z,62.88
2024-04-17T20:01:58.428Z,62.80
2024-04-17T20:04:01.202Z,62.84
2024-04-17T20:06:06.144Z,62.68
2024-04-17T20:08:08.567Z,62.18
2024-04-17T20:10:18.483Z,61.85
2024-04-17T20:12:22.626Z,61.42
2024-04-17T20:14:27.028Z,61.40
2024-04-17T20:16:31.594Z,61.45
2024-04-17T20:18:36.875Z,61.48
2024-04-17T20:21:01.006Z,61.72
2024-04-17T20:23:04.770Z,62.02
2024-04-17T20:25:09.991Z,61.91
2024-04-17T20:27:12.558Z,62.06
2024-04-17T20:29:16.368Z,62.07
2024-04-17T20:31:21.162Z,62.28
2024-04-17T20:33:25.346Z,62.28
2024-04-17T20:35:28.039Z,62.25
2024-04-17T20:37:37.816Z,62.18
2024-04-17T20:39:42.232Z,61.93
2024-04-17T20:41:46.124Z,61.82
2024-04-17T20:43:48.660Z,61.45
2024-04-17T20:45:52.261Z,61.41
2024-04-17T20:47:56.514Z,61.39
2024-04-17T20:50:03.115Z,61.43
2024-04-17T20:52:07.814Z,61.22
2024-04-17T20:54:10.370Z,61.33
2024-04-17T20:56:12.985Z,61.52
2024-04-17T20:58:15.520Z,61.49
2024-04-17T21:00:18.088Z,61.52
2024-04-17T21:02:20.673Z,61.78
2024-04-17T21:04:23.099Z,62.13
2024-04-17T21:06:25.717Z,62.54
2024-04-17T21:08:28.549Z,62.43
2024-04-17T21:10:31.219Z,62.14
2024-04-17T21:12:33.683Z,62.20
2024-04-17T21:14:36.499Z,62.12
2024-04-17T21:16:38.937Z,61.67
2024-04-17T21:18:42.473Z,61.45
2024-04-17T21:20:44.904Z,61.50
2024-04-17T21:22:47.253Z,61.35
2024-04-17T21:24:50.264Z,61.29
2024-04-17T21:26:52.696Z,61.26
2024-04-17T21:28:56.292Z,61.16
2024-04-17T21:30:58.838Z,60.95
2024-04-17T21:33:01.497Z,61.04
2024-04-17T21:35:06.685Z,60.98
2024-04-17T21:37:10.624Z,61.03
2024-04-17T21:39:13.433Z,60.93
2024-04-17T21:41:16.053Z,61.05
2024-04-17T21:43:18.693Z,61.26
2024-04-17T21:45:21.428Z,61.16
2024-04-17T21:47:24.420Z,61.34
2024-04-17T21:49:26.912Z,61.24
2024-04-17T21:51:29.439Z,61.55
2024-04-17T21:53:32.555Z,61.54
2024-04-17T21:55:34.954Z,61.60
2024-04-17T21:57:37.464Z,61.55
2024-04-17T21:59:39.871Z,61.60
2024-04-17T22:01:43.145Z,61.85
2024-04-17T22:03:46.027Z,61.83
2024-04-17T22:05:51.477Z,61.89
2024-04-17T22:07:53.853Z,62.04
2024-04-17T22:09:56.252Z,61.84
2024-04-17T22:11:59.146Z,61.54
2024-04-17T22:14:01.573Z,61.56
2024-04-17T22:16:04.185Z,61.55
2024-04-17T22:18:06.837Z,61.36
2024-04-17T22:20:09.344Z,61.41
2024-04-17T22:22:12.668Z,61.22
2024-04-17T22:24:15.177Z,61.25
2024-04-17T22:26:18.670Z,61.21
2024-04-17T22:28:21.090Z,61.20
2024-04-17T22:30:23.927Z,61.48
2024-04-17T22:32:26.375Z,61.20
2024-04-17T22:34:29.914Z,61.02
2024-04-17T22:36:32.779Z,60.76
2024-04-17T22:38:35.188Z,60.59
2024-04-17T22:40:37.579Z,60.49
2024-04-17T22:42:40.370Z,60.40
2024-04-17T22:44:42.885Z,60.28
2024-04-17T22:46:45.519Z,60.27
2024-04-17T22:48:48.092Z,60.37
2024-04-17T22:50:50.580Z,60.33
2024-04-17T22:52:52.981Z,60.51
2024-04-17T22:54:55.730Z,60.55
2024-04-17T22:57:00.408Z,60.50
2024-04-17T22:59:02.968Z,60.59
2024-04-17T23:01:05.456Z,60.64
2024-04-17T23:03:07.947Z,60.86
2024-04-17T23:05:10.364Z,61.22
2024-04-17T23:07:12.907Z,61.26
2024-04-17T23:09:15.284Z,61.05
2024-04-17T23:11:17.762Z,61.10
2024-04-17T23:13:20.166Z,61.20
2024-04-17T23:15:22.638Z,61.08
2024-04-17T23:17:25.081Z,61.17
2024-04-17T23:19:27.450Z,61.01
2024-04-17T23:21:30.067Z,61.15
2024-04-17T23:23:33.109Z,61.01
2024-04-17T23:25:36.757Z,61.01
2024-04-17T23:27:39.368Z,61.13
2024-04-17T23:29:41.922Z,61.37
2024-04-17T23:31:44.379Z,61.29
2024-04-17T23:33:47.213Z,61.22
2024-04-17T23:35:49.793Z,61.38
2024-04-17T23:37:52.559Z,61.49
2024-04-17T23:39:55.431Z,61.73
2024-04-17T23:41:57.801Z,61.68
2024-04-17T23:44:00.239Z,61.53
2024-04-17T23:46:02.683Z,61.74
2024-04-17T23:48:05.791Z,62.09
2024-04-17T23:50:08.232Z,62.35
2024-04-17T23:52:10.877Z,62.57
2024-04-17T23:54:13.542Z,62.77
2024-04-17T23:56:17.380Z,62.85
2024-04-17T23:58:19.898Z,62.87
